METAR Data

Data at: 0228 UTC 16 Jan 2019

METAR for:KFOK (Westhampton/Gabreski, NY, US)
Text:KFOK 160153Z 00000KT 10SM CLR M09/M13 A3014 RMK AO2 SLP208 T10891128 $
Temperature: -8.9°C ( 16°F)
Dewpoint:-12.8°C ( 9°F) [RH = 73%]
Pressure (altimeter):30.14 inches Hg (1020.7 mb) [Sea level pressure: 1020.8 mb]
Winds:calm
Visibility:10 or more sm (16+ km)
Ceiling:at least 12,000 feet AGL
Clouds:sky clear below 12,000 feet AGL
QC Flag:SOME DATA ABOVE MAY BE INACCURATE!!!"$" is an indication the sensor requires maintenance.